KSEG

Penn Valley Airport

Selinsgrove, Pennsylvania, USA
METAR KSEG 220653Z AUTO VRB03KT 10SM CLR 22/19 A3001 RMK AO2 SLP158 T02170189
Observed Flight Rules
Sep-22 @ 06:53 UTC (an hour ago) Visual Flight Rules
Wind Visibility Clouds
Variable at 3 knots 10 miles
Temperatures Readings
Current 22°C / 72°F
Dewpoint 19°C / 66°F
Humidity 83%
Altimeter 30.01" Hg
Pressure 1015.8 hPa
Elevation 134
METAR KSEG 220653Z AUTO VRB03KT 10SM CLR 22/19 A3001 RMK AO2 SLP158 T02170189
Observed Flight Rules
Sep-22 @ 06:53 UTC
(an hour ago)
VFR
Wind Visibility
Variable at 3 knots 10 miles
Clouds
Temperature Dewpoint
22°C / 72°F 19°C / 66°F
Humidity Altimeter Pressure
83% 30.01" Hg 1015.8 hPa